Time;durP1;ratioP1;P1;durP2;ratioP2;P2;SDS_P1;SDS_P2;PMS_P1;PMS_P2;Temp;Humidity;BMP_temperature;BMP_pressure;BME280_temperature;BME280_humidity;BME280_pressure;Samples;Min_cycle;Max_cycle;Signal;HPM_P1;HPM_P2
2022/11/22 00:01:24;;;;;;;7.32;3.88;;;;;;;;;;5014098;28;20089;-69
2022/11/22 00:03:51;;;;;;;11.00;3.83;;;;;;;;;;5013943;28;20467;-69
2022/11/22 00:06:18;;;;;;;7.50;4.30;;;;;;;;;;5012118;28;20046;-69
2022/11/22 00:08:44;;;;;;;9.65;3.92;;;;;;;;;;5013193;28;20481;-67
2022/11/22 00:11:11;;;;;;;6.70;4.10;;;;;;;;;;5013294;28;20077;-68
2022/11/22 00:13:37;;;;;;;6.35;3.33;;;;;;;;;;5013750;28;20116;-69
2022/11/22 00:16:04;;;;;;;7.47;4.07;;;;;;;;;;5013548;28;20112;-67
2022/11/22 00:18:31;;;;;;;10.85;5.28;;;;;;;;;;5012120;28;20471;-68
2022/11/22 00:21:04;;;;;;;7.85;4.00;;;;;;;;;;5013287;28;20090;-69
2022/11/22 00:23:30;;;;;;;6.97;4.10;;;;;;;;;;5013324;28;20077;-70
2022/11/22 00:25:57;;;;;;;10.48;3.72;;;;;;;;;;5013391;28;20049;-69
2022/11/22 00:28:24;;;;;;;6.88;3.78;;;;;;;;;;5012769;28;20050;-69
2022/11/22 00:30:50;;;;;;;7.30;3.85;;;;;;;;;;5012825;28;20136;-68
2022/11/22 00:33:17;;;;;;;6.88;3.58;;;;;;;;;;4993680;28;20108;-67
2022/11/22 00:35:45;;;;;;;6.22;3.75;;;;;;;;;;4993620;28;20089;-68
2022/11/22 00:38:11;;;;;;;8.10;3.95;;;;;;;;;;4992861;28;20093;-69
2022/11/22 00:40:38;;;;;;;8.52;3.25;;;;;;;;;;4993562;28;20433;-69
2022/11/22 00:43:04;;;;;;;5.63;2.72;;;;;;;;;;4993715;28;20150;-68
2022/11/22 00:45:31;;;;;;;6.90;3.17;;;;;;;;;;4993411;28;20491;-68
2022/11/22 00:47:57;;;;;;;8.05;4.13;;;;;;;;;;4998394;28;20041;-68
2022/11/22 00:50:24;;;;;;;11.13;3.38;;;;;;;;;;5001155;28;20046;-70
2022/11/22 00:52:51;;;;;;;6.05;2.95;;;;;;;;;;4993648;28;20108;-69
2022/11/22 00:55:17;;;;;;;5.85;3.45;;;;;;;;;;4993328;28;20108;-68
2022/11/22 00:57:44;;;;;;;8.02;3.03;;;;;;;;;;4993335;28;20066;-69
2022/11/22 01:00:11;;;;;;;5.32;3.20;;;;;;;;;;4993221;28;20133;-69
2022/11/22 01:02:37;;;;;;;5.88;3.13;;;;;;;;;;4993174;28;20058;-67
2022/11/22 01:05:04;;;;;;;8.05;3.25;;;;;;;;;;4993298;28;20129;-68
2022/11/22 01:07:31;;;;;;;4.43;3.22;;;;;;;;;;4992848;28;20089;-69
2022/11/22 01:09:58;;;;;;;7.10;4.15;;;;;;;;;;4992287;28;20050;-69
2022/11/22 01:12:24;;;;;;;7.30;5.03;;;;;;;;;;4993049;28;20086;-69
2022/11/22 01:14:51;;;;;;;9.38;4.18;;;;;;;;;;5007613;28;20046;-69
2022/11/22 01:17:17;;;;;;;12.77;4.65;;;;;;;;;;5012202;28;20112;-69
2022/11/22 01:19:44;;;;;;;8.70;4.43;;;;;;;;;;5011769;28;20104;-68
2022/11/22 01:22:11;;;;;;;9.65;4.15;;;;;;;;;;5012285;28;20100;-69
2022/11/22 01:24:38;;;;;;;6.03;3.55;;;;;;;;;;5012741;28;20560;-69
2022/11/22 01:27:04;;;;;;;6.80;4.18;;;;;;;;;;5012526;28;20088;-68
2022/11/22 01:29:31;;;;;;;7.38;3.55;;;;;;;;;;4992248;28;20449;-69
2022/11/22 01:31:58;;;;;;;9.15;3.85;;;;;;;;;;4992639;28;20472;-69
2022/11/22 01:34:24;;;;;;;7.80;4.43;;;;;;;;;;4992956;28;20078;-68
2022/11/22 01:36:51;;;;;;;7.03;3.28;;;;;;;;;;4992714;28;20050;-68
2022/11/22 01:39:18;;;;;;;6.32;3.17;;;;;;;;;;4992478;28;20082;-69
2022/11/22 01:41:44;;;;;;;8.40;3.20;;;;;;;;;;4997835;28;20153;-68
2022/11/22 01:44:17;;;;;;;6.30;2.83;;;;;;;;;;5012172;28;20076;-68
2022/11/22 01:46:44;;;;;;;5.43;3.22;;;;;;;;;;5012231;28;20053;-69
2022/11/22 01:49:27;;;;;;;6.65;3.50;;;;;;;;;;5010180;28;20137;-69
2022/11/22 01:51:57;;;;;;;8.02;3.00;;;;;;;;;;4996289;28;20505;-69
2022/11/22 01:54:24;;;;;;;4.18;2.63;;;;;;;;;;4994984;28;20493;-68
2022/11/22 01:56:55;;;;;;;8.07;3.58;;;;;;;;;;5005683;28;20100;-69
2022/11/22 01:59:24;;;;;;;8.32;2.75;;;;;;;;;;5014973;28;20054;-69
2022/11/22 02:01:52;;;;;;;6.57;2.60;;;;;;;;;;5016386;28;20133;-68
2022/11/22 02:04:18;;;;;;;4.50;2.10;;;;;;;;;;4998696;28;20560;-70
2022/11/22 02:06:54;;;;;;;6.00;2.95;;;;;;;;;;5014712;28;20081;-68
2022/11/22 02:09:20;;;;;;;6.43;2.35;;;;;;;;;;5014034;28;20092;-69
2022/11/22 02:11:49;;;;;;;6.82;2.53;;;;;;;;;;5014932;28;20108;-69
2022/11/22 02:14:18;;;;;;;3.97;2.45;;;;;;;;;;5016113;28;20050;-69
2022/11/22 02:16:45;;;;;;;4.97;2.05;;;;;;;;;;5014621;28;20133;-69
2022/11/22 02:19:49;;;;;;;4.82;2.50;;;;;;;;;;4997695;28;20049;-68
2022/11/22 02:22:37;;;;;;;4.97;2.30;;;;;;;;;;4993583;28;20062;-67
2022/11/22 02:25:39;;;;;;;4.38;2.28;;;;;;;;;;5014463;28;20084;-68
2022/11/22 02:28:09;;;;;;;3.38;1.95;;;;;;;;;;5012226;28;20065;-69
2022/11/22 02:30:36;;;;;;;5.20;2.45;;;;;;;;;;5015069;28;20050;-68
2022/11/22 02:33:03;;;;;;;3.15;2.10;;;;;;;;;;5015730;28;20085;-68
2022/11/22 02:35:30;;;;;;;5.68;2.20;;;;;;;;;;5015681;28;20076;-67
2022/11/22 02:37:57;;;;;;;5.03;2.20;;;;;;;;;;5010510;28;20077;-70
2022/11/22 02:40:24;;;;;;;5.82;2.35;;;;;;;;;;4995642;28;20062;-69
2022/11/22 02:43:12;;;;;;;4.20;1.80;;;;;;;;;;5010684;28;20092;-69
2022/11/22 02:45:39;;;;;;;4.03;1.90;;;;;;;;;;4994790;28;20054;-69
2022/11/22 02:48:07;;;;;;;3.40;2.10;;;;;;;;;;4995031;28;20133;-69
2022/11/22 02:50:34;;;;;;;6.10;2.20;;;;;;;;;;4995359;28;20058;-70
2022/11/22 02:53:01;;;;;;;5.43;2.47;;;;;;;;;;5013560;28;20085;-69
2022/11/22 02:55:27;;;;;;;4.00;2.60;;;;;;;;;;5015506;28;20046;-69
2022/11/22 02:57:54;;;;;;;5.63;2.10;;;;;;;;;;5013871;28;20088;-69
2022/11/22 03:00:21;;;;;;;5.85;2.42;;;;;;;;;;5014883;28;20140;-69
2022/11/22 03:02:48;;;;;;;3.88;2.35;;;;;;;;;;4997313;28;20133;-69
2022/11/22 03:05:14;;;;;;;4.53;2.33;;;;;;;;;;4995177;28;20486;-69
2022/11/22 03:07:41;;;;;;;4.78;2.60;;;;;;;;;;4994867;28;20050;-68
2022/11/22 03:10:08;;;;;;;6.60;2.42;;;;;;;;;;4994328;28;20472;-70
2022/11/22 03:12:35;;;;;;;3.55;2.28;;;;;;;;;;5008662;28;20092;-68
2022/11/22 03:15:02;;;;;;;4.93;2.55;;;;;;;;;;5014467;28;20140;-70
2022/11/22 03:17:28;;;;;;;4.80;2.42;;;;;;;;;;5014427;28;20081;-69
2022/11/22 03:19:55;;;;;;;4.15;2.10;;;;;;;;;;5014002;28;20547;-68
2022/11/22 03:22:21;;;;;;;6.20;2.42;;;;;;;;;;5014670;28;20500;-69
2022/11/22 03:24:48;;;;;;;4.75;2.70;;;;;;;;;;5014610;28;20084;-69
2022/11/22 03:27:15;;;;;;;5.47;2.25;;;;;;;;;;5014579;28;20101;-69
2022/11/22 03:29:41;;;;;;;4.05;2.20;;;;;;;;;;5013705;28;20054;-68
2022/11/22 03:32:08;;;;;;;4.95;2.45;;;;;;;;;;5004800;28;20097;-69
2022/11/22 03:34:34;;;;;;;6.60;2.22;;;;;;;;;;4994568;28;20497;-68
2022/11/22 03:37:01;;;;;;;5.15;2.20;;;;;;;;;;4994594;28;20140;-69
2022/11/22 03:39:28;;;;;;;6.07;2.72;;;;;;;;;;4993997;28;20043;-69
2022/11/22 03:41:55;;;;;;;4.90;2.28;;;;;;;;;;5002078;28;20054;-69
2022/11/22 03:44:22;;;;;;;4.85;1.98;;;;;;;;;;5013986;28;20053;-68
2022/11/22 03:46:49;;;;;;;4.40;2.10;;;;;;;;;;5013995;28;20081;-69
2022/11/22 03:49:15;;;;;;;7.10;2.58;;;;;;;;;;5013100;28;20092;-68
2022/11/22 03:51:42;;;;;;;4.75;2.53;;;;;;;;;;5013499;28;20070;-68
2022/11/22 03:54:09;;;;;;;5.15;1.98;;;;;;;;;;5013863;28;20094;-69
2022/11/22 03:56:36;;;;;;;6.60;2.28;;;;;;;;;;5013663;28;20061;-68
2022/11/22 03:59:03;;;;;;;5.90;2.80;;;;;;;;;;5013057;28;20073;-69
2022/11/22 04:01:30;;;;;;;4.97;2.20;;;;;;;;;;5013578;28;20049;-68
2022/11/22 04:03:57;;;;;;;2.55;1.80;;;;;;;;;;5013442;28;20050;-70
2022/11/22 04:06:23;;;;;;;3.15;1.80;;;;;;;;;;5013718;28;20112;-68
2022/11/22 04:08:50;;;;;;;9.15;2.53;;;;;;;;;;5012873;28;20077;-68
2022/11/22 04:11:16;;;;;;;4.60;1.85;;;;;;;;;;5011884;28;20458;-68
2022/11/22 04:16:28;;;;;;;3.78;2.00;;;;;;;;;;4993665;28;20046;-69
2022/11/22 04:18:54;;;;;;;4.15;2.00;;;;;;;;;;4993125;28;20060;-69
2022/11/22 04:21:33;;;;;;;4.70;2.03;;;;;;;;;;4992736;28;20450;-69
2022/11/22 04:26:47;;;;;;;3.33;1.73;;;;;;;;;;4993435;28;20050;-69
2022/11/22 04:29:15;;;;;;;5.55;1.98;;;;;;;;;;4991690;28;20054;-69
2022/11/22 04:34:27;;;;;;;3.63;2.20;;;;;;;;;;4993403;28;20058;-68
2022/11/22 04:36:54;;;;;;;4.07;2.10;;;;;;;;;;4993348;28;20046;-69
2022/11/22 04:39:20;;;;;;;5.95;2.25;;;;;;;;;;4992538;28;20537;-70
2022/11/22 04:44:39;;;;;;;5.03;2.47;;;;;;;;;;4993316;28;20590;-68
2022/11/22 04:44:39;;;;;;;3.22;2.47;;;;;;;;;;4993542;28;20074;-69
2022/11/22 04:47:11;;;;;;;9.80;2.13;;;;;;;;;;4993370;28;20145;-68
2022/11/22 04:49:38;;;;;;;4.53;2.00;;;;;;;;;;4992681;28;20470;-69
2022/11/22 04:54:49;;;;;;;4.13;2.55;;;;;;;;;;5006178;28;20138;-69
2022/11/22 04:57:16;;;;;;;6.53;1.85;;;;;;;;;;4993472;28;20097;-66
2022/11/22 04:59:43;;;;;;;4.78;2.13;;;;;;;;;;4992285;28;20096;-67
2022/11/22 05:02:09;;;;;;;6.10;2.60;;;;;;;;;;4999517;28;20145;-67
2022/11/22 05:04:36;;;;;;;5.63;2.28;;;;;;;;;;5012794;28;20053;-67
2022/11/22 05:07:02;;;;;;;4.85;2.00;;;;;;;;;;5012508;28;20624;-67
2022/11/22 05:09:29;;;;;;;4.43;2.10;;;;;;;;;;5011991;28;20516;-66
2022/11/22 05:11:56;;;;;;;3.45;2.00;;;;;;;;;;5012327;28;20132;-67
2022/11/22 05:14:23;;;;;;;4.95;2.22;;;;;;;;;;5012449;28;20437;-67
2022/11/22 05:16:49;;;;;;;3.95;2.13;;;;;;;;;;5012069;28;20580;-66
2022/11/22 05:19:16;;;;;;;4.57;2.10;;;;;;;;;;5011790;28;20046;-67
2022/11/22 05:21:42;;;;;;;5.03;2.70;;;;;;;;;;5021959;28;20119;-66
2022/11/22 05:24:09;;;;;;;5.80;2.40;;;;;;;;;;5012195;28;20069;-66
2022/11/22 05:26:35;;;;;;;7.28;3.22;;;;;;;;;;5017448;28;20084;-66
2022/11/22 05:29:07;;;;;;;5.15;3.15;;;;;;;;;;5011414;28;20130;-68
2022/11/22 05:31:35;;;;;;;6.05;3.60;;;;;;;;;;5012065;28;20458;-66
2022/11/22 05:34:01;;;;;;;11.45;4.88;;;;;;;;;;5012240;28;20088;-66
2022/11/22 05:36:30;;;;;;;7.65;4.75;;;;;;;;;;5020075;28;20123;-66
2022/11/22 05:38:56;;;;;;;10.27;4.15;;;;;;;;;;5015131;28;20515;-67
2022/11/22 05:41:23;;;;;;;6.75;3.85;;;;;;;;;;4996327;28;20081;-67
2022/11/22 05:43:50;;;;;;;5.18;3.00;;;;;;;;;;5017057;28;20085;-67
2022/11/22 05:46:21;;;;;;;5.15;3.75;;;;;;;;;;5011931;28;20133;-68
2022/11/22 05:48:51;;;;;;;6.15;3.72;;;;;;;;;;5011397;28;20046;-68
2022/11/22 05:51:19;;;;;;;4.60;3.25;;;;;;;;;;5012101;28;20471;-67
2022/11/22 05:53:46;;;;;;;6.30;3.28;;;;;;;;;;5011971;28;20065;-67
2022/11/22 05:56:18;;;;;;;6.50;4.03;;;;;;;;;;5015795;28;20073;-68
2022/11/22 05:58:44;;;;;;;5.32;3.53;;;;;;;;;;5002343;28;20069;-66
2022/11/22 06:01:14;;;;;;;12.80;4.15;;;;;;;;;;5019780;28;20085;-68
2022/11/22 06:03:41;;;;;;;6.60;3.28;;;;;;;;;;5011913;28;20092;-69
2022/11/22 06:06:08;;;;;;;6.85;3.08;;;;;;;;;;5019679;28;20069;-67
2022/11/22 06:08:36;;;;;;;6.80;2.97;;;;;;;;;;5020455;28;20113;-67
2022/11/22 06:11:05;;;;;;;10.10;3.38;;;;;;;;;;5023934;28;20073;-67
2022/11/22 06:13:39;;;;;;;9.00;2.90;;;;;;;;;;5021538;28;20077;-68
2022/11/22 06:16:06;;;;;;;6.97;2.90;;;;;;;;;;5020165;28;20054;-67
2022/11/22 06:18:34;;;;;;;6.60;3.40;;;;;;;;;;5021848;28;20486;-69
2022/11/22 06:21:02;;;;;;;8.45;3.58;;;;;;;;;;5028535;28;20099;-67
2022/11/22 06:23:29;;;;;;;4.97;3.00;;;;;;;;;;5031935;28;20103;-67
2022/11/22 06:26:01;;;;;;;6.93;2.90;;;;;;;;;;5030837;28;20073;-67
2022/11/22 06:28:29;;;;;;;7.53;3.20;;;;;;;;;;5026468;28;20092;-67
2022/11/22 06:31:06;;;;;;;5.82;2.80;;;;;;;;;;5011583;28;20116;-67
2022/11/22 06:33:33;;;;;;;5.85;3.47;;;;;;;;;;4999681;28;20137;-67
2022/11/22 06:36:04;;;;;;;8.82;4.45;;;;;;;;;;4992151;28;20054;-66
2022/11/22 06:38:31;;;;;;;9.98;4.75;;;;;;;;;;4997665;28;20136;-67
2022/11/22 06:41:01;;;;;;;8.98;4.60;;;;;;;;;;5011690;28;20045;-67
2022/11/22 06:43:31;;;;;;;9.82;5.13;;;;;;;;;;5011752;28;20103;-67
2022/11/22 06:45:59;;;;;;;6.55;4.22;;;;;;;;;;5014961;28;20493;-66
2022/11/22 06:48:27;;;;;;;10.68;4.30;;;;;;;;;;5014394;28;20567;-67
2022/11/22 06:51:02;;;;;;;6.50;4.03;;;;;;;;;;5014022;28;20471;-68
2022/11/22 06:53:29;;;;;;;9.98;4.93;;;;;;;;;;5030186;28;20226;-66
2022/11/22 06:56:15;;;;;;;7.57;4.50;;;;;;;;;;5014874;28;20057;-66
2022/11/22 06:58:42;;;;;;;7.68;4.10;;;;;;;;;;5014237;28;20050;-67
2022/11/22 07:01:14;;;;;;;8.52;3.90;;;;;;;;;;5013564;28;20184;-66
2022/11/22 07:03:41;;;;;;;12.45;6.50;;;;;;;;;;5014820;28;20054;-66
2022/11/22 07:06:09;;;;;;;18.10;9.07;;;;;;;;;;5012791;28;20108;-66
2022/11/22 07:08:37;;;;;;;20.17;10.93;;;;;;;;;;5013050;28;20046;-65
2022/11/22 07:11:10;;;;;;;23.77;13.63;;;;;;;;;;5014107;28;20054;-66
2022/11/22 07:13:37;;;;;;;27.77;14.00;;;;;;;;;;5011295;28;20100;-67
2022/11/22 07:16:05;;;;;;;24.65;14.23;;;;;;;;;;4993747;28;20138;-66
2022/11/22 07:18:32;;;;;;;17.67;10.10;;;;;;;;;;4999188;28;20049;-66
2022/11/22 07:21:03;;;;;;;14.20;8.20;;;;;;;;;;5008244;28;20137;-67
2022/11/22 07:23:38;;;;;;;16.75;7.55;;;;;;;;;;5006714;28;20057;-67
2022/11/22 07:26:05;;;;;;;11.43;6.60;;;;;;;;;;5002977;28;20050;-69
2022/11/22 07:28:32;;;;;;;11.88;5.80;;;;;;;;;;5011607;28;20053;-68
2022/11/22 07:31:02;;;;;;;12.55;4.50;;;;;;;;;;5005875;28;20085;-68
2022/11/22 07:33:29;;;;;;;9.35;4.45;;;;;;;;;;5003081;28;20140;-69
2022/11/22 07:36:02;;;;;;;7.07;3.65;;;;;;;;;;5011925;28;20133;-68
2022/11/22 07:38:28;;;;;;;11.80;4.93;;;;;;;;;;5007942;28;20078;-68
2022/11/22 07:40:55;;;;;;;9.75;4.00;;;;;;;;;;4997853;28;20045;-67
2022/11/22 07:43:21;;;;;;;9.98;3.75;;;;;;;;;;5002673;28;20641;-69
2022/11/22 07:45:48;;;;;;;10.88;4.45;;;;;;;;;;5005083;28;20050;-68
2022/11/22 07:48:14;;;;;;;11.50;6.88;;;;;;;;;;4995752;28;20089;-67
2022/11/22 07:50:41;;;;;;;9.68;5.30;;;;;;;;;;4995550;28;20049;-67
2022/11/22 07:53:08;;;;;;;8.48;4.20;;;;;;;;;;5011481;28;20659;-67
2022/11/22 07:55:35;;;;;;;12.52;4.10;;;;;;;;;;5011342;28;20089;-65
2022/11/22 07:58:02;;;;;;;8.70;3.67;;;;;;;;;;5002732;28;20179;-68
2022/11/22 08:00:28;;;;;;;10.18;3.90;;;;;;;;;;5003368;28;20582;-67
2022/11/22 08:02:56;;;;;;;11.15;4.00;;;;;;;;;;5012071;28;20128;-68
2022/11/22 08:05:23;;;;;;;8.25;3.13;;;;;;;;;;5003737;28;20077;-66
2022/11/22 08:07:51;;;;;;;8.60;3.90;;;;;;;;;;5007292;28;20103;-67
2022/11/22 08:10:18;;;;;;;7.55;3.45;;;;;;;;;;5009605;28;20046;-66
2022/11/22 08:12:44;;;;;;;15.32;3.10;;;;;;;;;;5007763;28;20104;-67
2022/11/22 08:15:12;;;;;;;12.40;2.88;;;;;;;;;;5010389;28;20073;-68
2022/11/22 08:17:39;;;;;;;9.27;2.42;;;;;;;;;;5009783;28;20046;-69
2022/11/22 08:20:09;;;;;;;8.25;2.50;;;;;;;;;;5008814;28;20042;-68
2022/11/22 08:22:37;;;;;;;13.32;4.25;;;;;;;;;;5010711;28;20050;-66
2022/11/22 08:25:06;;;;;;;9.63;3.80;;;;;;;;;;5010221;28;20081;-67
2022/11/22 08:27:33;;;;;;;9.93;2.85;;;;;;;;;;5009410;28;20054;-68
2022/11/22 08:29:59;;;;;;;7.43;2.50;;;;;;;;;;5009055;28;20077;-68
2022/11/22 08:32:26;;;;;;;7.35;2.10;;;;;;;;;;4997497;28;20058;-67
2022/11/22 08:34:53;;;;;;;9.32;2.35;;;;;;;;;;5009925;28;20564;-69
2022/11/22 08:37:19;;;;;;;10.95;2.95;;;;;;;;;;5009870;28;20085;-67
2022/11/22 08:39:46;;;;;;;10.07;3.05;;;;;;;;;;5008823;28;20085;-67
2022/11/22 08:42:12;;;;;;;8.57;3.05;;;;;;;;;;5006780;28;20054;-66
2022/11/22 08:44:39;;;;;;;10.30;2.53;;;;;;;;;;5008365;28;20069;-67
2022/11/22 08:47:06;;;;;;;9.15;3.47;;;;;;;;;;5004015;28;20054;-67
2022/11/22 08:49:32;;;;;;;6.22;2.55;;;;;;;;;;5005363;28;20038;-68
2022/11/22 08:51:59;;;;;;;6.78;2.53;;;;;;;;;;5012528;28;20073;-68
2022/11/22 08:54:26;;;;;;;10.13;2.92;;;;;;;;;;5005773;28;20459;-76
2022/11/22 08:56:58;;;;;;;10.23;2.95;;;;;;;;;;4989214;28;20082;-73
2022/11/22 08:59:24;;;;;;;8.88;2.30;;;;;;;;;;5023160;28;20456;-73
2022/11/22 09:01:51;;;;;;;7.25;2.38;;;;;;;;;;5001534;28;20335;-68
2022/11/22 09:04:18;;;;;;;10.90;2.95;;;;;;;;;;5007709;28;20056;-67
2022/11/22 09:06:44;;;;;;;7.78;2.15;;;;;;;;;;5008744;28;20084;-67
2022/11/22 09:09:31;;;;;;;9.55;2.38;;;;;;;;;;5010168;28;20042;-67
2022/11/22 09:12:04;;;;;;;11.30;2.30;;;;;;;;;;5010496;28;20516;-67
2022/11/22 09:14:30;;;;;;;10.63;2.92;;;;;;;;;;5011266;28;20113;-67
2022/11/22 09:16:57;;;;;;;13.18;3.47;;;;;;;;;;5010679;28;20050;-67
2022/11/22 09:19:23;;;;;;;7.10;2.33;;;;;;;;;;5010614;28;20082;-66
2022/11/22 09:21:50;;;;;;;8.05;2.70;;;;;;;;;;5010757;28;20141;-68
2022/11/22 09:24:16;;;;;;;7.78;2.50;;;;;;;;;;5010411;28;20069;-66
2022/11/22 09:26:43;;;;;;;5.65;2.35;;;;;;;;;;5010098;28;20046;-67
2022/11/22 09:29:10;;;;;;;7.00;3.05;;;;;;;;;;5010519;28;20053;-67
2022/11/22 09:31:36;;;;;;;7.32;2.75;;;;;;;;;;5010607;28;20100;-69
2022/11/22 09:34:03;;;;;;;10.93;2.95;;;;;;;;;;5011078;28;20136;-67
2022/11/22 09:36:30;;;;;;;11.27;2.47;;;;;;;;;;5010510;28;20104;-67
2022/11/22 09:38:56;;;;;;;10.68;3.00;;;;;;;;;;5010116;28;20103;-71
2022/11/22 09:41:44;;;;;;;9.32;2.50;;;;;;;;;;5004998;28;20080;-77
2022/11/22 09:44:21;;;;;;;9.27;2.22;;;;;;;;;;5018308;28;20073;-70
2022/11/22 09:47:05;;;;;;;6.85;2.90;;;;;;;;;;5006080;28;20053;-70
2022/11/22 09:49:53;;;;;;;8.57;2.17;;;;;;;;;;5009095;28;20054;-73
2022/11/22 09:52:32;;;;;;;7.43;2.40;;;;;;;;;;5008643;28;20049;-74
2022/11/22 09:55:01;;;;;;;6.93;2.28;;;;;;;;;;5023117;28;20054;-69
2022/11/22 09:57:48;;;;;;;4.82;1.83;;;;;;;;;;5007770;28;20140;-73
2022/11/22 10:00:20;;;;;;;11.10;2.88;;;;;;;;;;5018825;28;20049;-68
2022/11/22 10:03:03;;;;;;;6.32;1.83;;;;;;;;;;5003833;28;20297;-67
2022/11/22 10:05:52;;;;;;;6.28;2.63;;;;;;;;;;5008008;28;20096;-68
2022/11/22 10:08:41;;;;;;;11.82;2.08;;;;;;;;;;5007227;28;20050;-67
2022/11/22 10:11:35;;;;;;;9.23;2.00;;;;;;;;;;5022995;28;20524;-67
2022/11/22 10:14:08;;;;;;;7.00;2.03;;;;;;;;;;5018207;28;20054;-67
2022/11/22 10:16:43;;;;;;;3.28;1.73;;;;;;;;;;5024158;28;20154;-67
2022/11/22 10:19:19;;;;;;;8.30;2.13;;;;;;;;;;5001483;28;20345;-66
2022/11/22 10:21:46;;;;;;;7.35;2.00;;;;;;;;;;5011404;28;20089;-67
2022/11/22 10:24:14;;;;;;;7.88;2.30;;;;;;;;;;5011985;28;20412;-67
2022/11/22 10:26:41;;;;;;;6.40;3.65;;;;;;;;;;5012887;28;20049;-70
2022/11/22 10:29:36;;;;;;;8.70;2.22;;;;;;;;;;5012768;28;20501;-65
2022/11/22 10:32:17;;;;;;;9.40;2.70;;;;;;;;;;5008303;28;20133;-73
2022/11/22 10:34:50;;;;;;;7.47;2.17;;;;;;;;;;5027055;28;20077;-74
2022/11/22 10:37:32;;;;;;;8.88;2.13;;;;;;;;;;5012224;28;20049;-71
2022/11/22 10:40:14;;;;;;;6.47;2.00;;;;;;;;;;5009581;28;20053;-72
2022/11/22 10:42:49;;;;;;;5.78;1.90;;;;;;;;;;5013066;28;20042;-72
2022/11/22 10:45:23;;;;;;;4.93;1.80;;;;;;;;;;5013632;28;20046;-71
2022/11/22 10:48:11;;;;;;;6.72;1.63;;;;;;;;;;5021628;28;20046;-75
2022/11/22 10:50:53;;;;;;;3.88;1.92;;;;;;;;;;5010909;28;20041;-75
2022/11/22 10:53:28;;;;;;;7.75;2.03;;;;;;;;;;5026725;28;20132;-75
2022/11/22 10:56:20;;;;;;;9.82;2.83;;;;;;;;;;5011925;28;20141;-74
2022/11/22 10:59:18;;;;;;;6.07;1.67;;;;;;;;;;5027814;28;20149;-73
2022/11/22 11:02:31;;;;;;;9.57;2.10;;;;;;;;;;5024139;28;20057;-71
2022/11/22 11:04:57;;;;;;;5.97;1.55;;;;;;;;;;5004430;28;20181;-71
2022/11/22 11:07:24;;;;;;;7.25;1.85;;;;;;;;;;5011608;28;20471;-70
2022/11/22 11:10:00;;;;;;;5.88;1.73;;;;;;;;;;5010393;28;20050;-69
2022/11/22 11:12:58;;;;;;;7.00;2.00;;;;;;;;;;5011979;28;20054;-78
2022/11/22 11:15:38;;;;;;;3.90;1.15;;;;;;;;;;5010790;28;20046;-74
2022/11/22 11:18:20;;;;;;;6.05;1.50;;;;;;;;;;5010217;28;20081;-69
2022/11/22 11:20:47;;;;;;;6.35;1.70;;;;;;;;;;5008830;28;20054;-72
2022/11/22 11:23:14;;;;;;;7.25;1.20;;;;;;;;;;5011588;28;20076;-71
2022/11/22 11:25:43;;;;;;;9.70;2.92;;;;;;;;;;5010352;28;20132;-72
2022/11/22 11:28:22;;;;;;;5.15;1.58;;;;;;;;;;5026713;28;20077;-74
2022/11/22 11:30:50;;;;;;;3.80;1.30;;;;;;;;;;5011104;28;20071;-69
2022/11/22 11:33:22;;;;;;;8.50;2.35;;;;;;;;;;5026532;28;20049;-69
2022/11/22 11:35:50;;;;;;;6.15;1.50;;;;;;;;;;5009699;28;20054;-68
2022/11/22 11:38:28;;;;;;;5.90;1.13;;;;;;;;;;5009152;28;20149;-68
2022/11/22 11:40:54;;;;;;;6.30;1.20;;;;;;;;;;5008481;28;20041;-71
2022/11/22 11:43:22;;;;;;;6.85;1.20;;;;;;;;;;5010259;28;20088;-71
2022/11/22 11:45:49;;;;;;;9.35;1.20;;;;;;;;;;5010486;28;20413;-68
2022/11/22 11:48:40;;;;;;;4.93;1.10;;;;;;;;;;5010927;28;20464;-68
2022/11/22 11:51:25;;;;;;;3.13;1.08;;;;;;;;;;5010489;28;20054;-68
2022/11/22 11:54:02;;;;;;;5.97;1.55;;;;;;;;;;5010973;28;20140;-67
2022/11/22 11:56:33;;;;;;;5.75;1.42;;;;;;;;;;5022909;28;20077;-69
2022/11/22 11:59:04;;;;;;;8.70;2.45;;;;;;;;;;5017687;28;20085;-69
2022/11/22 12:01:33;;;;;;;7.03;2.40;;;;;;;;;;5009608;28;20528;-68
2022/11/22 12:04:05;;;;;;;4.57;1.70;;;;;;;;;;4991051;28;20058;-68
2022/11/22 12:06:32;;;;;;;3.97;1.65;;;;;;;;;;5025517;28;20618;-69
2022/11/22 12:08:59;;;;;;;6.40;1.23;;;;;;;;;;5025079;28;20495;-68
2022/11/22 12:11:36;;;;;;;5.43;1.50;;;;;;;;;;5010743;28;20115;-68
2022/11/22 12:14:03;;;;;;;3.75;1.23;;;;;;;;;;5009359;28;20116;-66
2022/11/22 12:16:46;;;;;;;2.33;1.10;;;;;;;;;;5006010;28;20241;-69
2022/11/22 12:19:31;;;;;;;4.93;1.52;;;;;;;;;;5009942;28;20560;-69
2022/11/22 12:22:25;;;;;;;3.40;1.00;;;;;;;;;;5019427;28;20501;-69
2022/11/22 12:25:37;;;;;;;4.90;1.17;;;;;;;;;;5023856;28;20053;-69
2022/11/22 12:28:32;;;;;;;3.70;1.00;;;;;;;;;;5003157;28;20052;-68
2022/11/22 12:31:06;;;;;;;3.00;1.00;;;;;;;;;;5023850;28;20050;-69
2022/11/22 12:33:46;;;;;;;4.35;1.20;;;;;;;;;;5025889;28;20052;-69
2022/11/22 12:36:33;;;;;;;4.70;1.05;;;;;;;;;;5026136;28;20417;-68
2022/11/22 12:39:01;;;;;;;3.97;1.05;;;;;;;;;;5023036;28;20141;-69
2022/11/22 12:41:28;;;;;;;5.32;0.80;;;;;;;;;;5010978;28;20100;-68
2022/11/22 12:44:00;;;;;;;5.68;1.45;;;;;;;;;;5009883;28;20046;-69
2022/11/22 12:46:42;;;;;;;6.50;1.67;;;;;;;;;;5015829;28;20077;-70
2022/11/22 12:49:32;;;;;;;5.50;1.00;;;;;;;;;;5022918;28;20057;-70
2022/11/22 12:52:13;;;;;;;2.50;1.05;;;;;;;;;;5025039;28;20123;-71
2022/11/22 12:54:43;;;;;;;5.25;1.27;;;;;;;;;;5010305;28;20144;-69
2022/11/22 12:57:14;;;;;;;2.58;1.13;;;;;;;;;;5009467;28;20084;-76
2022/11/22 13:00:06;;;;;;;4.18;1.55;;;;;;;;;;5008977;28;20050;-75
2022/11/22 13:02:38;;;;;;;6.18;1.50;;;;;;;;;;5008162;28;20060;-72
2022/11/22 13:05:12;;;;;;;3.47;1.20;;;;;;;;;;5007316;28;20053;-72
2022/11/22 13:07:54;;;;;;;3.78;1.00;;;;;;;;;;5006702;28;20500;-72
2022/11/22 13:10:48;;;;;;;6.88;1.30;;;;;;;;;;5009557;28;20050;-69
2022/11/22 13:13:20;;;;;;;5.28;0.90;;;;;;;;;;5009495;28;20136;-69
2022/11/22 13:15:47;;;;;;;7.63;1.88;;;;;;;;;;5007701;28;20046;-69
2022/11/22 13:18:15;;;;;;;3.33;0.82;;;;;;;;;;5007781;28;20081;-69
2022/11/22 13:21:05;;;;;;;1.67;0.77;;;;;;;;;;5024237;28;20042;-71
2022/11/22 13:23:39;;;;;;;4.90;1.23;;;;;;;;;;5020727;28;20050;-68
2022/11/22 13:26:26;;;;;;;6.07;1.65;;;;;;;;;;5023546;28;20135;-70
2022/11/22 13:28:52;;;;;;;8.43;2.63;;;;;;;;;;5022199;28;20482;-70
2022/11/22 13:31:19;;;;;;;4.00;1.15;;;;;;;;;;5009833;28;20050;-70
2022/11/22 13:33:59;;;;;;;2.00;0.68;;;;;;;;;;5026331;28;20572;-71
2022/11/22 13:36:25;;;;;;;4.60;1.00;;;;;;;;;;4974118;28;20417;-71
2022/11/22 13:39:08;;;;;;;1.63;0.77;;;;;;;;;;4992676;28;20085;-71
2022/11/22 13:41:45;;;;;;;4.95;1.23;;;;;;;;;;4991420;28;20057;-72
2022/11/22 13:44:21;;;;;;;4.55;1.13;;;;;;;;;;5006105;28;20092;-72
2022/11/22 13:47:02;;;;;;;3.25;0.95;;;;;;;;;;5001633;28;20103;-74
2022/11/22 13:49:34;;;;;;;5.70;1.40;;;;;;;;;;5001068;28;20045;-76
2022/11/22 13:52:26;;;;;;;7.28;1.48;;;;;;;;;;5004596;28;20050;-70
2022/11/22 13:54:59;;;;;;;4.68;1.00;;;;;;;;;;5013150;28;20046;-72
2022/11/22 13:57:33;;;;;;;;;;;;;;;;;;5012597;28;20045;-73
2022/11/22 14:00:20;;;;;;;3.88;1.05;;;;;;;;;;5011802;28;19980;-76
2022/11/22 14:02:49;;;;;;;7.70;0.95;;;;;;;;;;5013948;28;20053;-76
2022/11/22 14:05:23;;;;;;;3.00;0.95;;;;;;;;;;5012191;28;20108;-74
2022/11/22 14:07:50;;;;;;;;;;;;;;;;;;5006448;28;20049;-75
2022/11/22 14:10:49;;;;;;;3.15;0.90;;;;;;;;;;5013789;28;19996;-79
2022/11/22 14:13:40;;;;;;;2.50;0.90;;;;;;;;;;5025503;28;20080;-76
2022/11/22 14:16:42;;;;;;;2.63;0.68;;;;;;;;;;5028063;28;20053;-78
2022/11/22 14:19:36;;;;;;;2.33;1.05;;;;;;;;;;5026770;28;20049;-75
2022/11/22 14:22:18;;;;;;;1.55;0.70;;;;;;;;;;5012828;28;20072;-76
2022/11/22 14:25:20;;;;;;;2.40;1.05;;;;;;;;;;5025404;28;20592;-72
2022/11/22 14:28:00;;;;;;;2.92;0.60;;;;;;;;;;4977807;28;20058;-69
2022/11/22 14:30:48;;;;;;;5.07;1.13;;;;;;;;;;5024175;28;20050;-69
2022/11/22 14:33:22;;;;;;;1.92;0.80;;;;;;;;;;5023772;28;20117;-69
2022/11/22 14:36:08;;;;;;;4.05;1.80;;;;;;;;;;5012093;28;20093;-74
2022/11/22 14:38:38;;;;;;;2.97;0.70;;;;;;;;;;5011884;28;20074;-74
2022/11/22 14:41:27;;;;;;;1.30;0.60;;;;;;;;;;5027247;28;20524;-73
2022/11/22 14:44:07;;;;;;;3.10;0.80;;;;;;;;;;5009143;28;20459;-72
2022/11/22 14:46:50;;;;;;;1.33;0.80;;;;;;;;;;5025291;28;20124;-75
2022/11/22 14:49:25;;;;;;;2.35;0.77;;;;;;;;;;5009887;28;20045;-73
2022/11/22 14:51:53;;;;;;;4.15;1.00;;;;;;;;;;5012210;28;20060;-76
2022/11/22 14:54:21;;;;;;;3.67;0.88;;;;;;;;;;5013207;28;20129;-72
2022/11/22 14:56:48;;;;;;;2.85;0.85;;;;;;;;;;5027021;28;20172;-72
2022/11/22 14:59:47;;;;;;;7.45;3.22;;;;;;;;;;5010752;28;20052;-69
2022/11/22 15:02:37;;;;;;;14.25;4.72;;;;;;;;;;5000303;28;20505;-70
2022/11/22 15:05:34;;;;;;;10.30;2.85;;;;;;;;;;5026713;28;20466;-70
2022/11/22 15:08:30;;;;;;;8.57;2.53;;;;;;;;;;5022808;28;20682;-71
2022/11/22 15:11:56;;;;;;;4.55;1.45;;;;;;;;;;5023443;28;20046;-71
2022/11/22 15:14:45;;;;;;;5.50;1.90;;;;;;;;;;5025046;28;20520;-71
2022/11/22 15:17:16;;;;;;;3.08;1.70;;;;;;;;;;5010715;28;20103;-70
2022/11/22 15:20:35;;;;;;;3.30;1.00;;;;;;;;;;5010590;28;20057;-76
2022/11/22 15:23:24;;;;;;;7.82;1.58;;;;;;;;;;5012445;28;20068;-71